sensor_id;sensor_type;location;lat;lon;timestamp;pressure;altitude;pressure_sealevel;temperature;humidity
13476;BME280;6810;63.824;20.288;2022-07-06T00:02:42;100777.00;;;15.03;60.88
13476;BME280;6810;63.824;20.288;2022-07-06T00:05:29;100791.03;;;15.07;61.07
13476;BME280;6810;63.824;20.288;2022-07-06T00:08:16;100789.56;;;15.03;61.66
13476;BME280;6810;63.824;20.288;2022-07-06T00:11:04;100796.50;;;14.94;61.29
13476;BME280;6810;63.824;20.288;2022-07-06T00:13:51;100794.88;;;14.92;61.26
13476;BME280;6810;63.824;20.288;2022-07-06T00:16:38;100800.00;;;14.84;61.33
13476;BME280;6810;63.824;20.288;2022-07-06T00:19:26;100793.13;;;14.80;61.47
13476;BME280;6810;63.824;20.288;2022-07-06T00:22:13;100772.16;;;14.61;61.46
13476;BME280;6810;63.824;20.288;2022-07-06T00:25:00;100790.03;;;14.73;61.58
13476;BME280;6810;63.824;20.288;2022-07-06T00:27:47;100791.56;;;14.65;61.62
13476;BME280;6810;63.824;20.288;2022-07-06T00:30:34;100800.59;;;14.64;61.87
13476;BME280;6810;63.824;20.288;2022-07-06T00:33:22;100802.75;;;14.59;61.74
13476;BME280;6810;63.824;20.288;2022-07-06T00:36:09;100796.88;;;14.54;61.80
13476;BME280;6810;63.824;20.288;2022-07-06T00:38:56;100798.84;;;14.52;61.93
13476;BME280;6810;63.824;20.288;2022-07-06T00:41:43;100782.66;;;14.41;61.89
13476;BME280;6810;63.824;20.288;2022-07-06T00:44:30;100804.66;;;14.46;62.04
13476;BME280;6810;63.824;20.288;2022-07-06T00:47:17;100798.75;;;14.41;62.04
13476;BME280;6810;63.824;20.288;2022-07-06T00:50:05;100799.09;;;14.36;61.78
13476;BME280;6810;63.824;20.288;2022-07-06T00:53:03;100801.13;;;14.33;62.33
13476;BME280;6810;63.824;20.288;2022-07-06T00:55:51;100796.09;;;14.28;62.29
13476;BME280;6810;63.824;20.288;2022-07-06T00:58:38;100796.63;;;14.21;62.18
13476;BME280;6810;63.824;20.288;2022-07-06T01:01:26;100801.97;;;14.21;62.31
13476;BME280;6810;63.824;20.288;2022-07-06T01:04:13;100804.00;;;14.17;62.52
13476;BME280;6810;63.824;20.288;2022-07-06T01:07:01;100813.25;;;14.13;62.67
13476;BME280;6810;63.824;20.288;2022-07-06T01:09:48;100811.84;;;14.08;62.79
13476;BME280;6810;63.824;20.288;2022-07-06T01:12:41;100803.41;;;14.01;62.97
13476;BME280;6810;63.824;20.288;2022-07-06T01:15:28;100813.38;;;13.99;63.21
13476;BME280;6810;63.824;20.288;2022-07-06T01:18:15;100807.56;;;13.92;62.73
13476;BME280;6810;63.824;20.288;2022-07-06T01:21:10;100813.03;;;13.91;63.17
13476;BME280;6810;63.824;20.288;2022-07-06T01:23:58;100820.97;;;13.92;62.96
13476;BME280;6810;63.824;20.288;2022-07-06T01:26:45;100815.84;;;13.89;63.22
13476;BME280;6810;63.824;20.288;2022-07-06T01:29:32;100791.31;;;13.70;63.20
13476;BME280;6810;63.824;20.288;2022-07-06T01:32:19;100821.50;;;13.85;63.71
13476;BME280;6810;63.824;20.288;2022-07-06T01:35:08;100825.38;;;13.81;62.93
13476;BME280;6810;63.824;20.288;2022-07-06T01:37:56;100827.41;;;13.77;63.02
13476;BME280;6810;63.824;20.288;2022-07-06T01:40:44;100824.06;;;13.74;62.83
13476;BME280;6810;63.824;20.288;2022-07-06T01:43:31;100826.13;;;13.70;63.09
13476;BME280;6810;63.824;20.288;2022-07-06T01:46:18;100831.72;;;13.67;63.23
13476;BME280;6810;63.824;20.288;2022-07-06T01:49:08;100830.19;;;13.63;63.76
13476;BME280;6810;63.824;20.288;2022-07-06T01:51:55;100839.97;;;13.64;63.31
13476;BME280;6810;63.824;20.288;2022-07-06T01:54:42;100806.69;;;13.42;63.62
13476;BME280;6810;63.824;20.288;2022-07-06T01:57:31;100806.69;;;13.42;63.84
13476;BME280;6810;63.824;20.288;2022-07-06T02:00:19;100845.53;;;13.61;63.67
13476;BME280;6810;63.824;20.288;2022-07-06T02:03:06;100844.75;;;13.59;63.91
13476;BME280;6810;63.824;20.288;2022-07-06T02:05:53;100849.34;;;13.57;64.16
13476;BME280;6810;63.824;20.288;2022-07-06T02:08:41;100846.78;;;13.56;63.60
13476;BME280;6810;63.824;20.288;2022-07-06T02:11:28;100853.22;;;13.53;63.33
13476;BME280;6810;63.824;20.288;2022-07-06T02:14:16;100855.78;;;13.55;64.07
13476;BME280;6810;63.824;20.288;2022-07-06T02:17:03;100842.94;;;13.47;64.32
13476;BME280;6810;63.824;20.288;2022-07-06T02:19:50;100854.19;;;13.52;63.69
13476;BME280;6810;63.824;20.288;2022-07-06T02:22:37;100857.72;;;13.53;64.36
13476;BME280;6810;63.824;20.288;2022-07-06T02:25:24;100846.06;;;13.54;63.95
13476;BME280;6810;63.824;20.288;2022-07-06T02:28:11;100849.56;;;13.54;64.53
13476;BME280;6810;63.824;20.288;2022-07-06T02:30:59;100843.59;;;13.51;63.48
13476;BME280;6810;63.824;20.288;2022-07-06T02:33:48;100842.72;;;13.50;64.28
13476;BME280;6810;63.824;20.288;2022-07-06T02:36:35;100854.94;;;13.54;64.45
13476;BME280;6810;63.824;20.288;2022-07-06T02:39:22;100849.56;;;13.54;63.83
13476;BME280;6810;63.824;20.288;2022-07-06T02:42:09;100833.09;;;13.48;64.29
13476;BME280;6810;63.824;20.288;2022-07-06T02:44:57;100852.25;;;13.54;64.65
13476;BME280;6810;63.824;20.288;2022-07-06T02:47:44;100846.78;;;13.56;65.01
13476;BME280;6810;63.824;20.288;2022-07-06T02:50:32;100801.34;;;13.29;64.33
13476;BME280;6810;63.824;20.288;2022-07-06T02:53:20;100857.19;;;13.60;64.16
13476;BME280;6810;63.824;20.288;2022-07-06T02:56:07;100856.97;;;13.63;64.19
13476;BME280;6810;63.824;20.288;2022-07-06T02:58:54;100854.09;;;13.66;64.10
13476;BME280;6810;63.824;20.288;2022-07-06T03:01:42;100855.72;;;13.69;64.11
13476;BME280;6810;63.824;20.288;2022-07-06T03:04:29;100844.13;;;13.68;64.30
13476;BME280;6810;63.824;20.288;2022-07-06T03:07:16;100854.84;;;13.81;63.96
13476;BME280;6810;63.824;20.288;2022-07-06T03:10:04;100852.06;;;13.82;64.15
13476;BME280;6810;63.824;20.288;2022-07-06T03:12:51;100838.69;;;13.82;63.75
13476;BME280;6810;63.824;20.288;2022-07-06T03:15:40;100840.06;;;13.88;63.89
13476;BME280;6810;63.824;20.288;2022-07-06T03:18:28;100833.31;;;13.95;64.03
13476;BME280;6810;63.824;20.288;2022-07-06T03:21:15;100843.63;;;14.01;64.40
13476;BME280;6810;63.824;20.288;2022-07-06T03:24:03;100830.81;;;14.05;63.59
13476;BME280;6810;63.824;20.288;2022-07-06T03:26:50;100844.66;;;14.11;63.82
13476;BME280;6810;63.824;20.288;2022-07-06T03:29:38;100781.88;;;13.77;63.58
13476;BME280;6810;63.824;20.288;2022-07-06T03:32:26;100838.88;;;14.17;63.33
13476;BME280;6810;63.824;20.288;2022-07-06T03:35:13;100836.66;;;14.24;63.68
13476;BME280;6810;63.824;20.288;2022-07-06T03:38:02;100848.84;;;14.28;63.52
13476;BME280;6810;63.824;20.288;2022-07-06T03:40:50;100837.91;;;14.31;63.29
13476;BME280;6810;63.824;20.288;2022-07-06T03:43:38;100842.81;;;14.37;63.05
13476;BME280;6810;63.824;20.288;2022-07-06T03:46:25;100849.72;;;14.41;62.73
13476;BME280;6810;63.824;20.288;2022-07-06T03:49:13;100838.22;;;14.39;62.93
13476;BME280;6810;63.824;20.288;2022-07-06T03:52:01;100844.88;;;14.46;62.72
13476;BME280;6810;63.824;20.288;2022-07-06T03:54:54;100840.47;;;14.45;62.90
13476;BME280;6810;63.824;20.288;2022-07-06T03:57:47;100847.84;;;14.54;62.82
13476;BME280;6810;63.824;20.288;2022-07-06T04:00:37;100844.81;;;14.58;62.76
13476;BME280;6810;63.824;20.288;2022-07-06T04:03:24;100840.31;;;14.59;62.19
13476;BME280;6810;63.824;20.288;2022-07-06T04:06:11;100847.81;;;14.66;62.75
13476;BME280;6810;63.824;20.288;2022-07-06T04:08:58;100836.97;;;14.68;61.92
13476;BME280;6810;63.824;20.288;2022-07-06T04:11:47;100840.06;;;14.74;61.83
13476;BME280;6810;63.824;20.288;2022-07-06T04:14:35;100856.81;;;14.78;62.18
13476;BME280;6810;63.824;20.288;2022-07-06T04:17:22;100851.22;;;14.81;62.29
13476;BME280;6810;63.824;20.288;2022-07-06T04:20:09;100850.97;;;14.84;61.44
13476;BME280;6810;63.824;20.288;2022-07-06T04:22:56;100848.78;;;14.89;61.38
13476;BME280;6810;63.824;20.288;2022-07-06T04:25:44;100846.88;;;14.91;61.46
13476;BME280;6810;63.824;20.288;2022-07-06T04:28:33;100842.38;;;14.91;61.58
13476;BME280;6810;63.824;20.288;2022-07-06T04:31:22;100849.09;;;14.97;61.37
13476;BME280;6810;63.824;20.288;2022-07-06T04:34:09;100846.94;;;15.02;61.29
13476;BME280;6810;63.824;20.288;2022-07-06T04:36:56;100857.22;;;15.08;61.20
13476;BME280;6810;63.824;20.288;2022-07-06T04:39:44;100840.34;;;15.06;60.62
13476;BME280;6810;63.824;20.288;2022-07-06T04:42:32;100845.78;;;15.17;60.30
13476;BME280;6810;63.824;20.288;2022-07-06T04:45:20;100845.31;;;15.23;60.23
13476;BME280;6810;63.824;20.288;2022-07-06T04:48:07;100846.78;;;15.27;59.90
13476;BME280;6810;63.824;20.288;2022-07-06T04:50:55;100843.03;;;15.29;59.65
13476;BME280;6810;63.824;20.288;2022-07-06T04:53:42;100848.06;;;15.34;59.73
13476;BME280;6810;63.824;20.288;2022-07-06T04:56:29;100849.44;;;15.39;59.85
13476;BME280;6810;63.824;20.288;2022-07-06T04:59:16;100819.59;;;15.31;59.19
13476;BME280;6810;63.824;20.288;2022-07-06T05:02:03;100851.19;;;15.51;58.99
13476;BME280;6810;63.824;20.288;2022-07-06T05:04:51;100828.09;;;15.49;58.46
13476;BME280;6810;63.824;20.288;2022-07-06T05:07:38;100839.84;;;15.59;58.11
13476;BME280;6810;63.824;20.288;2022-07-06T05:10:25;100837.91;;;15.61;58.29
13476;BME280;6810;63.824;20.288;2022-07-06T05:13:12;100840.38;;;15.64;58.05
13476;BME280;6810;63.824;20.288;2022-07-06T05:15:59;100835.84;;;15.65;57.67
13476;BME280;6810;63.824;20.288;2022-07-06T05:18:47;100843.94;;;15.76;57.76
13476;BME280;6810;63.824;20.288;2022-07-06T05:21:34;100840.91;;;15.80;57.35
13476;BME280;6810;63.824;20.288;2022-07-06T05:24:22;100808.75;;;15.68;56.91
13476;BME280;6810;63.824;20.288;2022-07-06T05:27:09;100840.31;;;15.88;56.75
13476;BME280;6810;63.824;20.288;2022-07-06T05:29:56;100840.06;;;15.91;56.37
13476;BME280;6810;63.824;20.288;2022-07-06T05:32:43;100839.69;;;15.95;56.40
13476;BME280;6810;63.824;20.288;2022-07-06T05:35:31;100838.47;;;15.99;55.85
13476;BME280;6810;63.824;20.288;2022-07-06T05:38:24;100842.53;;;16.05;55.65
13476;BME280;6810;63.824;20.288;2022-07-06T05:41:11;100844.00;;;16.09;55.24
13476;BME280;6810;63.824;20.288;2022-07-06T05:43:59;100835.31;;;16.16;54.73
13476;BME280;6810;63.824;20.288;2022-07-06T05:46:46;100838.38;;;16.23;54.34
13476;BME280;6810;63.824;20.288;2022-07-06T05:49:34;100839.59;;;16.30;54.45
13476;BME280;6810;63.824;20.288;2022-07-06T05:52:19;100838.97;;;16.37;53.88
13476;BME280;6810;63.824;20.288;2022-07-06T05:54:47;100838.72;;;16.40;53.46
13476;BME280;6810;63.824;20.288;2022-07-06T05:57:14;100807.06;;;16.33;52.81
13476;BME280;6810;63.824;20.288;2022-07-06T05:59:41;100825.53;;;16.48;53.49
13476;BME280;6810;63.824;20.288;2022-07-06T06:02:08;100831.41;;;16.53;53.34
13476;BME280;6810;63.824;20.288;2022-07-06T06:04:35;100823.09;;;16.56;52.89
13476;BME280;6810;63.824;20.288;2022-07-06T06:07:02;100831.13;;;16.67;52.81
13476;BME280;6810;63.824;20.288;2022-07-06T06:09:29;100817.19;;;16.73;53.19
13476;BME280;6810;63.824;20.288;2022-07-06T06:11:56;100817.66;;;16.78;53.24
13476;BME280;6810;63.824;20.288;2022-07-06T06:14:24;100805.19;;;16.77;52.57
13476;BME280;6810;63.824;20.288;2022-07-06T06:16:51;100816.19;;;16.85;52.70
13476;BME280;6810;63.824;20.288;2022-07-06T06:19:18;100821.19;;;16.90;52.57
13476;BME280;6810;63.824;20.288;2022-07-06T06:21:45;100819.31;;;16.90;52.06
13476;BME280;6810;63.824;20.288;2022-07-06T06:24:12;100798.69;;;16.80;52.30
13476;BME280;6810;63.824;20.288;2022-07-06T06:26:39;100813.22;;;16.88;51.69
13476;BME280;6810;63.824;20.288;2022-07-06T06:29:27;100820.06;;;16.92;52.36
13476;BME280;6810;63.824;20.288;2022-07-06T06:32:15;100821.06;;;16.91;51.97
13476;BME280;6810;63.824;20.288;2022-07-06T06:35:03;100781.59;;;16.70;52.03
13476;BME280;6810;63.824;20.288;2022-07-06T06:37:50;100826.31;;;16.93;51.73
13476;BME280;6810;63.824;20.288;2022-07-06T06:40:37;100790.84;;;16.77;52.13
13476;BME280;6810;63.824;20.288;2022-07-06T06:43:24;100824.31;;;16.95;52.26
13476;BME280;6810;63.824;20.288;2022-07-06T06:46:13;100824.94;;;16.98;52.35
13476;BME280;6810;63.824;20.288;2022-07-06T06:49:01;100822.72;;;17.03;52.47
13476;BME280;6810;63.824;20.288;2022-07-06T06:51:48;100817.94;;;17.07;52.00
13476;BME280;6810;63.824;20.288;2022-07-06T06:54:55;100808.13;;;17.06;51.86
13476;BME280;6810;63.824;20.288;2022-07-06T06:57:22;100825.13;;;17.17;52.12
13476;BME280;6810;63.824;20.288;2022-07-06T06:59:49;100816.06;;;17.18;51.53
13476;BME280;6810;63.824;20.288;2022-07-06T07:02:16;100816.06;;;17.18;50.88
13476;BME280;6810;63.824;20.288;2022-07-06T07:04:43;100822.19;;;17.20;51.44
13476;BME280;6810;63.824;20.288;2022-07-06T07:07:10;100808.97;;;17.17;51.10
13476;BME280;6810;63.824;20.288;2022-07-06T07:09:37;100805.63;;;17.25;50.98
13476;BME280;6810;63.824;20.288;2022-07-06T07:12:04;100811.00;;;17.25;50.46
13476;BME280;6810;63.824;20.288;2022-07-06T07:14:32;100809.88;;;17.27;50.57
13476;BME280;6810;63.824;20.288;2022-07-06T07:16:59;100801.06;;;17.25;51.50
13476;BME280;6810;63.824;20.288;2022-07-06T07:19:43;100799.09;;;17.27;50.98
13476;BME280;6810;63.824;20.288;2022-07-06T07:22:10;100804.44;;;17.39;50.34
13476;BME280;6810;63.824;20.288;2022-07-06T07:24:37;100803.31;;;17.41;50.75
13476;BME280;6810;63.824;20.288;2022-07-06T07:27:04;100807.66;;;17.44;50.33
13476;BME280;6810;63.824;20.288;2022-07-06T07:29:32;100801.72;;;17.50;50.20
13476;BME280;6810;63.824;20.288;2022-07-06T07:31:59;100802.31;;;17.53;49.22
13476;BME280;6810;63.824;20.288;2022-07-06T07:34:26;100791.13;;;17.58;49.52
13476;BME280;6810;63.824;20.288;2022-07-06T07:36:53;100794.28;;;17.63;49.00
13476;BME280;6810;63.824;20.288;2022-07-06T07:39:20;100807.97;;;17.71;49.28
13476;BME280;6810;63.824;20.288;2022-07-06T07:41:47;100795.91;;;17.75;49.31
13476;BME280;6810;63.824;20.288;2022-07-06T07:44:17;100767.66;;;17.69;48.69
13476;BME280;6810;63.824;20.288;2022-07-06T07:46:44;100786.75;;;17.87;48.84
13476;BME280;6810;63.824;20.288;2022-07-06T07:49:11;100790.50;;;17.95;49.30
13476;BME280;6810;63.824;20.288;2022-07-06T07:51:49;100773.19;;;17.98;49.17
13476;BME280;6810;63.824;20.288;2022-07-06T07:54:17;100782.06;;;18.09;48.58
13476;BME280;6810;63.824;20.288;2022-07-06T07:56:44;100788.88;;;18.13;48.09
13476;BME280;6810;63.824;20.288;2022-07-06T07:59:11;100778.28;;;18.21;47.31
13476;BME280;6810;63.824;20.288;2022-07-06T08:01:40;100788.81;;;18.24;46.92
13476;BME280;6810;63.824;20.288;2022-07-06T08:04:07;100783.84;;;18.29;47.30
13476;BME280;6810;63.824;20.288;2022-07-06T08:06:34;100758.06;;;18.16;46.84
13476;BME280;6810;63.824;20.288;2022-07-06T08:09:02;100788.19;;;18.41;46.24
13476;BME280;6810;63.824;20.288;2022-07-06T08:11:30;100786.91;;;18.45;45.64
13476;BME280;6810;63.824;20.288;2022-07-06T08:13:57;100777.53;;;18.49;44.95
13476;BME280;6810;63.824;20.288;2022-07-06T08:16:24;100780.38;;;18.48;44.57
13476;BME280;6810;63.824;20.288;2022-07-06T08:18:52;100783.81;;;18.59;44.34
13476;BME280;6810;63.824;20.288;2022-07-06T08:21:19;100795.34;;;18.61;44.08
13476;BME280;6810;63.824;20.288;2022-07-06T08:23:53;100797.06;;;18.62;44.43
13476;BME280;6810;63.824;20.288;2022-07-06T08:26:21;100790.78;;;18.62;44.29
13476;BME280;6810;63.824;20.288;2022-07-06T08:29:08;100794.22;;;18.64;43.53
13476;BME280;6810;63.824;20.288;2022-07-06T08:31:55;100794.06;;;18.65;43.92
13476;BME280;6810;63.824;20.288;2022-07-06T08:35:03;100788.25;;;18.70;43.86
13476;BME280;6810;63.824;20.288;2022-07-06T08:37:50;100773.03;;;18.59;44.04
13476;BME280;6810;63.824;20.288;2022-07-06T08:40:38;100790.66;;;18.73;43.50
13476;BME280;6810;63.824;20.288;2022-07-06T08:43:26;100792.38;;;18.74;44.14
13476;BME280;6810;63.824;20.288;2022-07-06T08:45:54;100756.38;;;18.54;43.87
13476;BME280;6810;63.824;20.288;2022-07-06T08:48:23;100780.44;;;18.76;43.46
13476;BME280;6810;63.824;20.288;2022-07-06T08:50:51;100790.25;;;18.77;43.85
13476;BME280;6810;63.824;20.288;2022-07-06T08:53:20;100786.84;;;18.85;43.77
13476;BME280;6810;63.824;20.288;2022-07-06T08:55:49;100784.59;;;18.90;43.73
13476;BME280;6810;63.824;20.288;2022-07-06T08:58:17;100787.88;;;18.93;43.98
13476;BME280;6810;63.824;20.288;2022-07-06T09:00:45;100783.31;;;18.94;43.85
13476;BME280;6810;63.824;20.288;2022-07-06T09:03:12;100787.44;;;18.98;44.42
13476;BME280;6810;63.824;20.288;2022-07-06T09:05:40;100797.69;;;19.04;43.71
13476;BME280;6810;63.824;20.288;2022-07-06T09:08:07;100781.03;;;19.09;43.60
13476;BME280;6810;63.824;20.288;2022-07-06T09:10:34;100792.25;;;19.14;43.40
13476;BME280;6810;63.824;20.288;2022-07-06T09:13:02;100783.72;;;19.18;43.49
13476;BME280;6810;63.824;20.288;2022-07-06T09:15:32;100788.69;;;19.23;43.21
13476;BME280;6810;63.824;20.288;2022-07-06T09:17:59;100781.16;;;19.26;43.07
13476;BME280;6810;63.824;20.288;2022-07-06T09:20:27;100775.38;;;19.31;42.92
13476;BME280;6810;63.824;20.288;2022-07-06T09:22:58;100774.81;;;19.27;42.85
13476;BME280;6810;63.824;20.288;2022-07-06T09:25:26;100786.03;;;19.32;42.40
13476;BME280;6810;63.824;20.288;2022-07-06T09:28:14;100781.50;;;19.33;42.76
13476;BME280;6810;63.824;20.288;2022-07-06T09:31:07;100779.50;;;19.35;42.99
13476;BME280;6810;63.824;20.288;2022-07-06T09:33:55;100745.88;;;19.18;42.69
13476;BME280;6810;63.824;20.288;2022-07-06T09:36:47;100781.06;;;19.47;42.54
13476;BME280;6810;63.824;20.288;2022-07-06T09:39:35;100779.91;;;19.49;43.03
13476;BME280;6810;63.824;20.288;2022-07-06T09:42:26;100773.19;;;19.53;42.70
13476;BME280;6810;63.824;20.288;2022-07-06T09:45:20;100775.34;;;19.59;42.81
13476;BME280;6810;63.824;20.288;2022-07-06T09:48:12;100776.88;;;19.71;43.10
13476;BME280;6810;63.824;20.288;2022-07-06T09:51:01;100759.06;;;19.78;42.98
13476;BME280;6810;63.824;20.288;2022-07-06T09:53:52;100775.94;;;19.99;42.35
13476;BME280;6810;63.824;20.288;2022-07-06T09:56:40;100770.63;;;20.07;42.44
13476;BME280;6810;63.824;20.288;2022-07-06T09:59:34;100774.75;;;20.11;41.79
13476;BME280;6810;63.824;20.288;2022-07-06T10:02:23;100777.34;;;20.13;41.59
13476;BME280;6810;63.824;20.288;2022-07-06T10:04:55;100766.50;;;20.13;41.63
13476;BME280;6810;63.824;20.288;2022-07-06T10:07:23;100766.34;;;20.14;41.50
13476;BME280;6810;63.824;20.288;2022-07-06T10:09:52;100761.66;;;20.16;41.49
13476;BME280;6810;63.824;20.288;2022-07-06T10:12:19;100766.34;;;20.14;41.56
13476;BME280;6810;63.824;20.288;2022-07-06T10:14:48;100763.78;;;20.13;41.32
13476;BME280;6810;63.824;20.288;2022-07-06T10:17:17;100760.22;;;20.12;41.52
13476;BME280;6810;63.824;20.288;2022-07-06T10:20:06;100759.50;;;20.20;41.44
13476;BME280;6810;63.824;20.288;2022-07-06T10:22:54;100760.22;;;20.22;41.58
13476;BME280;6810;63.824;20.288;2022-07-06T10:25:44;100751.69;;;20.17;41.50
13476;BME280;6810;63.824;20.288;2022-07-06T10:28:39;100696.16;;;20.03;41.52
13476;BME280;6810;63.824;20.288;2022-07-06T10:31:28;100761.13;;;20.40;41.66
13476;BME280;6810;63.824;20.288;2022-07-06T10:34:18;100756.94;;;20.45;41.01
13476;BME280;6810;63.824;20.288;2022-07-06T10:37:05;100735.31;;;20.36;41.12
13476;BME280;6810;63.824;20.288;2022-07-06T10:39:53;100762.63;;;20.52;41.24
13476;BME280;6810;63.824;20.288;2022-07-06T10:42:47;100747.50;;;20.49;41.49
13476;BME280;6810;63.824;20.288;2022-07-06T10:48:21;100732.88;;;20.42;41.35
13476;BME280;6810;63.824;20.288;2022-07-06T10:51:11;100729.75;;;20.37;41.24
13476;BME280;6810;63.824;20.288;2022-07-06T10:54:00;100750.66;;;20.45;41.25
13476;BME280;6810;63.824;20.288;2022-07-06T10:56:49;100725.34;;;20.36;41.63
13476;BME280;6810;63.824;20.288;2022-07-06T10:59:36;100748.25;;;20.42;41.56
13476;BME280;6810;63.824;20.288;2022-07-06T11:02:23;100744.31;;;20.36;41.72
13476;BME280;6810;63.824;20.288;2022-07-06T11:05:11;100737.06;;;20.37;41.62
13476;BME280;6810;63.824;20.288;2022-07-06T11:08:18;100740.59;;;20.37;41.54
13476;BME280;6810;63.824;20.288;2022-07-06T11:14:20;100734.72;;;20.42;41.48
13476;BME280;6810;63.824;20.288;2022-07-06T11:17:10;100731.84;;;20.43;41.46
13476;BME280;6810;63.824;20.288;2022-07-06T11:19:59;100726.28;;;20.45;41.36
13476;BME280;6810;63.824;20.288;2022-07-06T11:22:55;100732.53;;;20.55;41.50
13476;BME280;6810;63.824;20.288;2022-07-06T11:25:42;100736.47;;;20.60;41.15
13476;BME280;6810;63.824;20.288;2022-07-06T11:28:30;100725.31;;;20.63;40.95
13476;BME280;6810;63.824;20.288;2022-07-06T11:31:17;100718.28;;;20.71;41.29
13476;BME280;6810;63.824;20.288;2022-07-06T11:34:05;100721.78;;;20.81;40.77
13476;BME280;6810;63.824;20.288;2022-07-06T11:39:45;100722.72;;;21.07;40.07
13476;BME280;6810;63.824;20.288;2022-07-06T11:42:32;100715.34;;;21.17;40.09
13476;BME280;6810;63.824;20.288;2022-07-06T11:45:26;100657.59;;;20.99;39.99
13476;BME280;6810;63.824;20.288;2022-07-06T11:48:13;100703.69;;;21.42;39.79
13476;BME280;6810;63.824;20.288;2022-07-06T11:51:01;100705.13;;;21.54;39.45
13476;BME280;6810;63.824;20.288;2022-07-06T11:53:53;100702.94;;;21.57;39.18
13476;BME280;6810;63.824;20.288;2022-07-06T11:59:41;100703.91;;;21.74;39.53
13476;BME280;6810;63.824;20.288;2022-07-06T12:02:38;100670.19;;;21.76;39.62
13476;BME280;6810;63.824;20.288;2022-07-06T12:05:31;100678.28;;;22.02;39.33
13476;BME280;6810;63.824;20.288;2022-07-06T12:08:18;100695.34;;;22.20;38.58
13476;BME280;6810;63.824;20.288;2022-07-06T12:11:05;100688.22;;;22.19;38.82
13476;BME280;6810;63.824;20.288;2022-07-06T12:14:01;100683.28;;;22.22;38.41
13476;BME280;6810;63.824;20.288;2022-07-06T12:16:49;100669.03;;;22.20;38.35
13476;BME280;6810;63.824;20.288;2022-07-06T12:19:37;100683.59;;;22.19;38.63
13476;BME280;6810;63.824;20.288;2022-07-06T12:22:25;100679.69;;;22.14;38.55
13476;BME280;6810;63.824;20.288;2022-07-06T12:25:29;100678.28;;;22.02;38.26
13476;BME280;6810;63.824;20.288;2022-07-06T12:27:56;100681.66;;;21.96;38.84
13476;BME280;6810;63.824;20.288;2022-07-06T12:30:24;100680.75;;;21.87;39.46
13476;BME280;6810;63.824;20.288;2022-07-06T12:33:10;100670.06;;;21.86;40.20
13476;BME280;6810;63.824;20.288;2022-07-06T12:35:37;100684.00;;;21.91;40.55
13476;BME280;6810;63.824;20.288;2022-07-06T12:38:05;100678.41;;;21.92;40.96
13476;BME280;6810;63.824;20.288;2022-07-06T12:40:32;100677.56;;;21.92;41.14
13476;BME280;6810;63.824;20.288;2022-07-06T12:42:59;100675.22;;;21.97;40.88
13476;BME280;6810;63.824;20.288;2022-07-06T12:45:27;100659.63;;;21.99;41.12
13476;BME280;6810;63.824;20.288;2022-07-06T12:48:02;100661.50;;;22.06;40.91
13476;BME280;6810;63.824;20.288;2022-07-06T12:50:35;100669.50;;;22.08;40.57
13476;BME280;6810;63.824;20.288;2022-07-06T12:53:04;100666.97;;;22.14;40.77
13476;BME280;6810;63.824;20.288;2022-07-06T12:56:08;100638.38;;;21.94;41.59
13476;BME280;6810;63.824;20.288;2022-07-06T12:58:59;100673.59;;;22.20;40.75
13476;BME280;6810;63.824;20.288;2022-07-06T13:01:47;100673.94;;;22.17;40.94
13476;BME280;6810;63.824;20.288;2022-07-06T13:04:36;100667.09;;;22.13;40.66
13476;BME280;6810;63.824;20.288;2022-07-06T13:07:23;100658.63;;;22.08;41.14
13476;BME280;6810;63.824;20.288;2022-07-06T13:10:12;100650.97;;;22.03;40.82
13476;BME280;6810;63.824;20.288;2022-07-06T13:12:59;100663.72;;;22.11;41.33
13476;BME280;6810;63.824;20.288;2022-07-06T13:15:46;100655.41;;;22.12;40.20
13476;BME280;6810;63.824;20.288;2022-07-06T13:18:33;100656.13;;;22.14;38.98
13476;BME280;6810;63.824;20.288;2022-07-06T13:21:20;100644.00;;;22.01;38.65
13476;BME280;6810;63.824;20.288;2022-07-06T13:24:07;100658.09;;;22.04;38.97
13476;BME280;6810;63.824;20.288;2022-07-06T13:26:56;100646.53;;;22.02;39.80
13476;BME280;6810;63.824;20.288;2022-07-06T13:29:43;100649.91;;;21.96;40.60
13476;BME280;6810;63.824;20.288;2022-07-06T13:32:30;100654.34;;;21.97;41.33
13476;BME280;6810;63.824;20.288;2022-07-06T13:35:18;100643.28;;;21.91;41.35
13476;BME280;6810;63.824;20.288;2022-07-06T13:38:05;100616.03;;;21.67;41.96
13476;BME280;6810;63.824;20.288;2022-07-06T13:40:52;100640.84;;;21.80;42.41
13476;BME280;6810;63.824;20.288;2022-07-06T13:43:40;100644.91;;;21.76;42.93
13476;BME280;6810;63.824;20.288;2022-07-06T13:46:30;100638.06;;;21.72;43.35
13476;BME280;6810;63.824;20.288;2022-07-06T13:49:17;100606.47;;;21.55;42.93
13476;BME280;6810;63.824;20.288;2022-07-06T13:52:05;100616.66;;;21.61;43.55
13476;BME280;6810;63.824;20.288;2022-07-06T13:54:52;100610.69;;;21.57;44.19
13476;BME280;6810;63.824;20.288;2022-07-06T13:57:39;100629.25;;;21.70;44.47
13476;BME280;6810;63.824;20.288;2022-07-06T14:00:26;100620.59;;;21.66;43.98
13476;BME280;6810;63.824;20.288;2022-07-06T14:03:13;100622.47;;;21.74;43.80
13476;BME280;6810;63.824;20.288;2022-07-06T14:06:01;100624.19;;;21.75;44.30
13476;BME280;6810;63.824;20.288;2022-07-06T14:08:48;100621.50;;;21.75;44.03
13476;BME280;6810;63.824;20.288;2022-07-06T14:11:36;100606.84;;;21.68;44.10
13476;BME280;6810;63.824;20.288;2022-07-06T14:14:23;100618.59;;;21.76;43.70
13476;BME280;6810;63.824;20.288;2022-07-06T14:17:10;100612.97;;;21.70;43.08
13476;BME280;6810;63.824;20.288;2022-07-06T14:19:57;100608.69;;;21.67;43.81
13476;BME280;6810;63.824;20.288;2022-07-06T14:22:44;100608.03;;;21.65;43.98
13476;BME280;6810;63.824;20.288;2022-07-06T14:25:31;100592.25;;;21.61;44.09